Time;durP1;ratioP1;P1;durP2;ratioP2;P2;SDS_P1;SDS_P2;PMS_P1;PMS_P2;Temp;Humidity;BMP_temperature;BMP_pressure;BME280_temperature;BME280_humidity;BME280_pressure;Samples;Min_cycle;Max_cycle;Signal;HPM_P1;HPM_P2
2023/05/19 00:01:09;;;;;;;5.00;2.85;;;14.50;99.90;;;;;;5073377;28;20499;-44
2023/05/19 00:03:39;;;;;;;6.10;3.05;;;14.50;99.90;;;;;;5088598;28;20187;-47
2023/05/19 00:06:09;;;;;;;5.60;3.03;;;14.60;99.90;;;;;;5073733;28;20036;-47
2023/05/19 00:08:37;;;;;;;3.58;2.65;;;14.50;99.90;;;;;;5071416;28;20048;-47
2023/05/19 00:11:03;;;;;;;4.47;2.90;;;14.50;99.90;;;;;;5074013;28;20032;-47
2023/05/19 00:13:29;;;;;;;5.78;3.40;;;14.50;99.90;;;;;;5070598;28;20040;-48
2023/05/19 00:15:55;;;;;;;5.22;3.28;;;14.50;99.90;;;;;;5069294;28;20034;-50
2023/05/19 00:18:21;;;;;;;6.03;3.03;;;14.50;99.90;;;;;;5070549;28;20040;-48
2023/05/19 00:20:48;;;;;;;8.02;3.38;;;14.50;99.90;;;;;;5072141;28;20036;-46
2023/05/19 00:23:14;;;;;;;5.25;3.08;;;14.40;99.90;;;;;;5072497;28;20036;-49
2023/05/19 00:25:39;;;;;;;7.07;3.25;;;14.50;99.90;;;;;;5073877;28;20097;-46
2023/05/19 00:28:05;;;;;;;6.68;3.63;;;14.50;99.90;;;;;;5072907;28;20064;-44
2023/05/19 00:30:31;;;;;;;5.85;3.05;;;14.50;99.90;;;;;;5070855;28;20502;-46
2023/05/19 00:32:57;;;;;;;6.18;3.45;;;14.40;99.90;;;;;;5072876;28;20016;-48
2023/05/19 00:35:23;;;;;;;5.53;3.80;;;14.50;99.90;;;;;;5073538;28;20036;-46
2023/05/19 00:37:49;;;;;;;6.03;3.53;;;14.40;99.90;;;;;;5082062;28;20037;-46
2023/05/19 00:40:15;;;;;;;5.25;3.30;;;14.40;99.90;;;;;;5037700;28;20047;-48
2023/05/19 00:42:41;;;;;;;6.60;3.65;;;14.50;99.90;;;;;;5072810;28;20488;-47
2023/05/19 00:45:07;;;;;;;10.77;3.75;;;14.50;99.90;;;;;;5072699;28;20027;-48
2023/05/19 00:47:33;;;;;;;8.25;3.08;;;14.40;99.90;;;;;;5036045;28;20098;-46
2023/05/19 00:49:59;;;;;;;6.57;3.95;;;14.40;99.90;;;;;;5072854;28;20472;-49
2023/05/19 00:52:26;;;;;;;6.47;4.10;;;14.30;99.90;;;;;;5072805;28;20035;-46
2023/05/19 00:54:52;;;;;;;7.40;4.35;;;14.30;99.90;;;;;;5072831;28;20438;-45
2023/05/19 00:57:19;;;;;;;7.32;3.33;;;14.40;99.90;;;;;;5070771;28;20484;-49
2023/05/19 00:59:48;;;;;;;6.53;3.60;;;14.40;99.90;;;;;;5071799;28;20113;-44
2023/05/19 01:02:14;;;;;;;8.63;3.90;;;14.40;99.90;;;;;;5067245;28;20079;-48
2023/05/19 01:04:42;;;;;;;6.97;4.10;;;14.40;99.90;;;;;;5087551;28;20086;-47
2023/05/19 01:07:09;;;;;;;6.72;3.50;;;14.40;99.90;;;;;;5069749;28;20025;-49
2023/05/19 01:09:36;;;;;;;6.32;3.92;;;14.30;99.90;;;;;;5073044;28;20032;-48
2023/05/19 01:12:02;;;;;;;6.78;4.57;;;14.40;99.90;;;;;;5072342;28;20067;-47
2023/05/19 01:14:28;;;;;;;7.93;4.15;;;14.40;99.90;;;;;;5087645;28;20131;-48
2023/05/19 01:17:06;;;;;;;6.40;3.58;;;14.40;99.90;;;;;;5072884;28;20453;-46
2023/05/19 01:19:35;;;;;;;6.30;3.72;;;14.40;99.90;;;;;;5072415;28;20028;-49
2023/05/19 01:22:29;;;;;;;5.88;3.70;;;14.40;99.90;;;;;;5072340;28;20043;-47
2023/05/19 01:25:19;;;;;;;6.82;4.07;;;14.40;99.90;;;;;;5070335;28;20040;-46
2023/05/19 01:28:05;;;;;;;7.70;3.88;;;14.30;99.90;;;;;;5069770;28;20419;-46
2023/05/19 01:30:36;;;;;;;7.57;4.20;;;14.40;99.90;;;;;;5087752;28;20380;-47
2023/05/19 01:33:07;;;;;;;6.35;3.72;;;14.30;99.90;;;;;;5072294;28;20032;-46
2023/05/19 01:35:35;;;;;;;5.93;3.42;;;14.40;99.90;;;;;;5072762;28;20483;-45
2023/05/19 01:38:03;;;;;;;6.10;3.80;;;14.30;99.90;;;;;;5071197;28;20052;-47
2023/05/19 01:40:30;;;;;;;4.68;3.03;;;14.30;99.90;;;;;;5066865;28;20021;-49
2023/05/19 01:42:57;;;;;;;5.65;3.67;;;14.30;99.90;;;;;;5070643;28;20028;-49
2023/05/19 01:45:23;;;;;;;6.30;3.90;;;14.20;99.90;;;;;;5070035;28;20032;-49
2023/05/19 01:47:53;;;;;;;7.22;4.30;;;14.30;99.90;;;;;;5071567;28;20423;-50
2023/05/19 01:50:20;;;;;;;8.13;4.90;;;14.40;99.90;;;;;;5071883;28;20052;-46
2023/05/19 01:52:45;;;;;;;5.75;3.88;;;14.20;99.90;;;;;;5070709;28;20036;-45
2023/05/19 01:55:12;;;;;;;6.45;4.25;;;;;;;;;;5072302;28;20028;-47
2023/05/19 01:58:00;;;;;;;7.30;4.28;;;13.90;99.90;;;;;;5070882;28;20029;-48
2023/05/19 02:00:50;;;;;;;7.78;4.47;;;14.00;99.90;;;;;;5070706;28;20049;-47
2023/05/19 02:03:19;;;;;;;6.80;3.55;;;14.10;99.90;;;;;;5062464;28;20033;-44
2023/05/19 02:05:51;;;;;;;6.57;3.65;;;14.20;99.90;;;;;;5071822;28;20128;-44
2023/05/19 02:08:32;;;;;;;6.93;3.60;;;14.20;99.90;;;;;;5066855;28;20028;-46
2023/05/19 02:11:06;;;;;;;6.00;3.17;;;14.10;99.90;;;;;;5072297;28;20028;-49
2023/05/19 02:13:36;;;;;;;7.10;4.05;;;14.10;99.90;;;;;;5071861;28;20036;-49
2023/05/19 02:16:05;;;;;;;6.57;4.15;;;14.00;99.90;;;;;;5071973;28;20024;-48
2023/05/19 02:18:34;;;;;;;5.45;3.60;;;14.00;99.90;;;;;;5071097;28;20028;-47
2023/05/19 02:21:00;;;;;;;6.65;3.67;;;13.90;99.90;;;;;;5071524;28;20028;-46
2023/05/19 02:23:26;;;;;;;6.15;3.20;;;14.00;99.90;;;;;;5071562;28;20094;-49
2023/05/19 02:25:52;;;;;;;8.60;3.83;;;;;;;;;;5071675;28;20448;-47
2023/05/19 02:28:18;;;;;;;6.35;3.42;;;;;;;;;;5071477;28;20032;-48
2023/05/19 02:30:44;;;;;;;5.00;2.70;;;;;;;;;;5071483;28;20090;-48
2023/05/19 02:33:10;;;;;;;6.82;3.70;;;13.80;99.90;;;;;;5053719;28;20092;-47
2023/05/19 02:35:36;;;;;;;5.00;3.10;;;14.00;99.90;;;;;;5070576;28;20122;-46
2023/05/19 02:38:02;;;;;;;7.07;3.97;;;;;;;;;;5071339;28;20099;-45
2023/05/19 02:40:28;;;;;;;7.22;3.85;;;;;;;;;;5071815;28;20471;-48
2023/05/19 02:42:54;;;;;;;6.72;3.88;;;;;;;;;;5070688;28;20357;-48
2023/05/19 02:45:20;;;;;;;6.43;3.75;;;;;;;;;;5086499;28;20136;-46
2023/05/19 02:47:46;;;;;;;5.97;3.88;;;;;;;;;;5037602;28;20400;-46
2023/05/19 02:50:12;;;;;;;5.82;3.75;;;;;;;;;;5040368;28;20071;-47
2023/05/19 02:52:38;;;;;;;8.50;3.33;;;;;;;;;;5075022;28;20028;-48
2023/05/19 02:55:05;;;;;;;6.85;4.60;;;;;;;;;;5075043;28;20077;-46
2023/05/19 02:57:32;;;;;;;7.93;4.40;;;;;;;;;;5072407;28;20036;-47
2023/05/19 02:59:58;;;;;;;6.10;3.60;;;;;;;;;;5074271;28;20072;-45
2023/05/19 03:02:24;;;;;;;9.20;5.05;;;;;;;;;;5070291;28;20033;-45
2023/05/19 03:04:50;;;;;;;7.72;3.97;;;;;;;;;;5074623;28;20057;-49
2023/05/19 03:07:16;;;;;;;9.27;5.15;;;;;;;;;;5090815;28;20384;-48
2023/05/19 03:09:42;;;;;;;10.15;4.53;;;;;;;;;;5074832;28;20036;-48
2023/05/19 03:12:08;;;;;;;7.97;4.30;;;;;;;;;;5089194;28;20060;-49
2023/05/19 03:14:38;;;;;;;8.02;4.78;;;;;;;;;;5074856;28;20450;-50
2023/05/19 03:17:06;;;;;;;8.27;4.05;;;13.70;99.90;;;;;;5074750;28;20468;-50
2023/05/19 03:19:32;;;;;;;7.80;4.28;;;;;;;;;;5073455;28;20060;-45
2023/05/19 03:21:58;;;;;;;7.38;4.20;;;;;;;;;;5074690;28;20089;-45
2023/05/19 03:24:24;;;;;;;5.80;3.15;;;15.50;99.90;;;;;;5074734;28;20033;-48
2023/05/19 03:26:50;;;;;;;6.55;3.45;;;13.50;99.90;;;;;;5074020;28;20021;-45
2023/05/19 03:29:16;;;;;;;4.35;3.05;;;13.60;99.90;;;;;;5069062;28;20090;-46
2023/05/19 03:31:42;;;;;;;10.00;3.08;;;13.60;99.90;;;;;;5074728;28;20032;-46
2023/05/19 03:34:07;;;;;;;4.68;2.85;;;13.70;99.90;;;;;;5072990;28;20438;-46
2023/05/19 03:36:38;;;;;;;5.32;2.65;;;13.70;99.90;;;;;;5069412;28;20123;-50
2023/05/19 03:39:05;;;;;;;4.63;2.65;;;13.80;99.90;;;;;;5073732;28;20432;-49
2023/05/19 03:41:31;;;;;;;4.60;2.75;;;13.80;99.90;;;;;;5073072;28;20041;-50
2023/05/19 03:43:57;;;;;;;4.97;2.85;;;14.00;99.90;;;;;;5074419;28;20541;-46
2023/05/19 03:46:22;;;;;;;5.38;2.38;;;14.00;99.90;;;;;;5089429;28;20028;-48
2023/05/19 03:48:48;;;;;;;4.88;3.05;;;13.90;99.90;;;;;;5074388;28;20398;-47
2023/05/19 03:51:14;;;;;;;5.88;2.50;;;13.90;99.90;;;;;;5074215;28;20043;-48
2023/05/19 03:53:40;;;;;;;4.22;2.30;;;13.80;99.90;;;;;;5074143;28;20078;-49
2023/05/19 03:56:12;;;;;;;4.78;2.72;;;13.70;99.90;;;;;;5074535;28;20021;-46
2023/05/19 03:58:42;;;;;;;4.93;3.10;;;13.70;99.90;;;;;;5072240;28;20189;-48
2023/05/19 04:01:08;;;;;;;6.70;2.92;;;13.70;99.90;;;;;;5068395;28;20067;-49
2023/05/19 04:03:33;;;;;;;6.03;3.20;;;13.80;99.90;;;;;;5074187;28;20106;-48
2023/05/19 04:05:59;;;;;;;6.70;3.20;;;13.80;99.90;;;;;;5072734;28;20452;-46
2023/05/19 04:08:25;;;;;;;6.25;2.97;;;13.90;99.90;;;;;;5070779;28;20056;-50
2023/05/19 04:10:51;;;;;;;4.68;2.88;;;13.90;99.90;;;;;;5070082;28;20036;-45
2023/05/19 04:13:16;;;;;;;5.03;3.00;;;13.80;99.90;;;;;;5069535;28;20032;-46
2023/05/19 04:15:42;;;;;;;3.83;2.92;;;13.90;99.90;;;;;;5055452;28;20041;-46
2023/05/19 04:18:08;;;;;;;6.63;2.80;;;14.00;99.90;;;;;;5070127;28;20041;-47
2023/05/19 04:20:33;;;;;;;4.93;2.33;;;14.00;99.90;;;;;;5081057;28;20115;-46
2023/05/19 04:22:59;;;;;;;4.00;2.50;;;14.00;99.90;;;;;;5073180;28;20422;-46
2023/05/19 04:25:27;;;;;;;3.50;2.58;;;13.90;99.90;;;;;;5068288;28;20037;-45
2023/05/19 04:27:56;;;;;;;6.28;2.72;;;13.80;99.90;;;;;;5066831;28;20408;-47
2023/05/19 04:30:23;;;;;;;3.35;2.25;;;13.80;99.90;;;;;;5070941;28;20037;-47
2023/05/19 04:32:49;;;;;;;4.60;2.88;;;13.80;99.90;;;;;;5065718;28;20131;-48
2023/05/19 04:35:16;;;;;;;5.78;2.80;;;13.80;99.90;;;;;;5073318;28;20396;-48
2023/05/19 04:37:44;;;;;;;4.38;2.72;;;13.70;99.90;;;;;;5069705;28;20111;-46
2023/05/19 04:40:14;;;;;;;4.85;3.08;;;13.70;99.90;;;;;;5071099;28;20090;-46
2023/05/19 04:42:41;;;;;;;3.58;2.15;;;13.70;99.90;;;;;;5071307;28;20073;-47
2023/05/19 04:45:08;;;;;;;8.70;3.40;;;13.80;99.90;;;;;;5067798;28;20036;-49
2023/05/19 04:47:37;;;;;;;4.10;2.72;;;13.80;99.90;;;;;;5070367;28;20476;-48
2023/05/19 04:50:04;;;;;;;5.00;2.40;;;13.80;99.90;;;;;;5072829;28;20089;-46
2023/05/19 04:52:30;;;;;;;5.10;2.60;;;13.90;99.90;;;;;;5037178;28;20044;-44
2023/05/19 04:54:55;;;;;;;4.38;1.95;;;13.90;99.90;;;;;;5065191;28;20059;-49
2023/05/19 04:57:21;;;;;;;4.22;2.90;;;13.80;99.90;;;;;;5071673;28;20464;-48
2023/05/19 04:59:48;;;;;;;8.57;4.13;;;13.70;99.90;;;;;;5069897;28;20050;-46
2023/05/19 05:02:14;;;;;;;6.63;3.05;;;13.60;99.90;;;;;;5071966;28;20121;-48
2023/05/19 05:04:42;;;;;;;5.60;2.65;;;13.80;99.90;;;;;;5070422;28;20475;-49
2023/05/19 05:07:08;;;;;;;3.75;2.42;;;13.80;99.90;;;;;;5070079;28;20391;-47
2023/05/19 05:09:34;;;;;;;5.53;2.70;;;13.90;99.90;;;;;;5064038;28;20029;-47
2023/05/19 05:12:01;;;;;;;4.10;2.60;;;14.00;99.90;;;;;;5063611;28;20097;-47
2023/05/19 05:14:27;;;;;;;4.07;2.50;;;13.90;99.90;;;;;;5068238;28;20072;-50
2023/05/19 05:16:53;;;;;;;4.78;2.60;;;13.90;99.90;;;;;;5051290;28;20041;-48
2023/05/19 05:19:21;;;;;;;5.65;3.15;;;13.90;99.90;;;;;;5067445;28;20090;-48
2023/05/19 05:21:47;;;;;;;8.45;4.38;;;13.90;99.90;;;;;;5071614;28;20028;-47
2023/05/19 05:24:13;;;;;;;9.32;4.05;;;14.00;99.90;;;;;;5069382;28;20459;-48
2023/05/19 05:26:39;;;;;;;5.63;3.42;;;13.90;99.90;;;;;;5043817;28;20191;-46
2023/05/19 05:29:07;;;;;;;6.78;4.03;;;14.00;99.90;;;;;;5067968;28;20120;-48
2023/05/19 05:31:32;;;;;;;7.93;4.22;;;14.10;99.90;;;;;;5086598;28;20044;-47
2023/05/19 05:33:58;;;;;;;5.35;3.47;;;14.20;99.90;;;;;;5036018;28;20391;-48
2023/05/19 05:36:24;;;;;;;6.55;3.42;;;14.20;99.90;;;;;;5087138;28;20029;-48
2023/05/19 05:38:50;;;;;;;8.98;4.15;;;14.20;99.90;;;;;;5072893;28;20035;-49
2023/05/19 05:41:16;;;;;;;5.45;3.25;;;14.30;99.90;;;;;;5072202;28;20039;-49
2023/05/19 05:43:42;;;;;;;7.50;3.90;;;14.20;99.90;;;;;;5087335;28;20476;-46
2023/05/19 05:46:07;;;;;;;6.82;3.83;;;14.30;99.90;;;;;;5071806;28;20048;-46
2023/05/19 05:48:33;;;;;;;8.43;3.95;;;14.30;99.90;;;;;;5070107;28;20036;-48
2023/05/19 05:51:00;;;;;;;4.93;3.33;;;14.40;99.90;;;;;;5072697;28;20036;-49
2023/05/19 05:53:29;;;;;;;7.32;2.85;;;14.40;99.90;;;;;;5065674;28;20329;-46
2023/05/19 05:55:55;;;;;;;6.57;3.25;;;14.50;99.90;;;;;;5071833;28;20025;-49
2023/05/19 05:58:21;;;;;;;4.75;2.78;;;14.40;99.90;;;;;;5072215;28;20079;-49
2023/05/19 06:00:48;;;;;;;4.40;2.58;;;;;;;;;;5069406;28;20500;-46
2023/05/19 06:03:15;;;;;;;6.18;3.10;;;14.50;99.90;;;;;;5070820;28;20029;-46
2023/05/19 06:05:41;;;;;;;4.95;2.92;;;14.60;99.90;;;;;;5071734;28;20033;-45
2023/05/19 06:08:07;;;;;;;4.00;2.60;;;;;;;;;;5071724;28;20021;-46
2023/05/19 06:10:35;;;;;;;3.25;1.92;;;;;;;;;;5063034;28;20093;-47
2023/05/19 06:13:01;;;;;;;3.65;2.63;;;14.70;99.90;;;;;;5072048;28;20043;-45
2023/05/19 06:15:27;;;;;;;4.30;2.40;;;;;;;;;;5064670;28;20033;-48
2023/05/19 06:17:53;;;;;;;3.10;2.25;;;;;;;;;;5070660;28;20021;-49
2023/05/19 06:20:19;;;;;;;3.03;1.98;;;;;;;;;;5071697;28;20027;-48
2023/05/19 06:22:45;;;;;;;6.97;2.38;;;;;;;;;;5068088;28;20350;-48
2023/05/19 06:25:12;;;;;;;4.35;2.20;;;;;;;;;;5075872;28;20057;-47
2023/05/19 06:27:38;;;;;;;3.80;2.15;;;;;;;;;;5074624;28;20042;-48
2023/05/19 06:30:07;;;;;;;4.05;2.60;;;;;;;;;;5075490;28;20037;-46
2023/05/19 06:32:33;;;;;;;5.25;2.38;;;;;;;;;;5075743;28;20036;-47
2023/05/19 06:34:59;;;;;;;6.18;2.67;;;;;;;;;;5075453;28;20032;-48
2023/05/19 06:37:25;;;;;;;3.83;2.00;;;;;;;;;;5076183;28;20437;-49
2023/05/19 06:39:52;;;;;;;6.25;2.30;;;;;;;;;;5090764;28;20376;-49
2023/05/19 06:42:21;;;;;;;4.35;2.80;;;;;;;;;;5071350;28;20067;-49
2023/05/19 06:44:48;;;;;;;3.58;2.03;;;;;;;;;;5072635;28;20517;-47
2023/05/19 06:47:14;;;;;;;6.18;2.63;;;;;;;;;;5074759;28;20062;-47
2023/05/19 06:49:41;;;;;;;4.28;2.70;;;;;;;;;;5075307;28;20392;-46
2023/05/19 06:52:07;;;;;;;4.72;2.17;;;;;;;;;;5075290;28;20029;-48
2023/05/19 06:54:33;;;;;;;4.75;2.72;;;;;;;;;;5074766;28;20028;-49
2023/05/19 06:56:59;;;;;;;5.22;2.58;;;;;;;;;;5090968;28;20081;-48
2023/05/19 06:59:25;;;;;;;5.63;3.00;;;;;;;;;;5090087;28;20449;-50
2023/05/19 07:01:52;;;;;;;5.97;2.95;;;;;;;;;;5074907;28;20078;-49
2023/05/19 07:04:18;;;;;;;3.67;2.42;;;;;;;;;;5073875;28;20078;-46
2023/05/19 07:06:44;;;;;;;6.22;2.35;;;;;;;;;;5073913;28;20093;-48
2023/05/19 07:09:10;;;;;;;4.28;2.67;;;;;;;;;;5074747;28;20048;-48
2023/05/19 07:11:36;;;;;;;5.60;2.78;;;;;;;;;;5075312;28;20033;-47
2023/05/19 07:14:02;;;;;;;5.15;3.08;;;15.30;99.90;;;;;;5074665;28;20062;-46
2023/05/19 07:16:27;;;;;;;4.50;2.97;;;15.40;99.90;;;;;;5070075;28;20125;-47
2023/05/19 07:18:53;;;;;;;5.00;2.97;;;15.40;99.90;;;;;;5069390;28;20033;-47
2023/05/19 07:21:19;;;;;;;4.57;2.58;;;15.50;99.90;;;;;;5075317;28;20027;-46
2023/05/19 07:23:44;;;;;;;4.20;2.45;;;15.60;99.90;;;;;;5089221;28;20052;-47
2023/05/19 07:26:10;;;;;;;5.25;2.50;;;15.60;99.90;;;;;;5088626;28;20063;-49
2023/05/19 07:28:36;;;;;;;5.43;3.03;;;15.80;99.90;;;;;;5074005;28;20051;-45
2023/05/19 07:31:02;;;;;;;5.97;2.70;;;15.80;99.90;;;;;;5071789;28;20048;-47
2023/05/19 07:33:28;;;;;;;4.75;3.10;;;15.80;99.90;;;;;;5073916;28;20025;-45
2023/05/19 07:35:54;;;;;;;4.75;2.80;;;15.60;99.90;;;;;;5069003;28;20128;-48
2023/05/19 07:38:20;;;;;;;7.55;3.65;;;15.50;99.90;;;;;;5072581;28;20064;-46
2023/05/19 07:40:46;;;;;;;6.85;4.03;;;15.50;99.90;;;;;;5073508;28;20081;-49
2023/05/19 07:43:11;;;;;;;5.65;2.95;;;15.60;99.90;;;;;;5069614;28;20036;-48
2023/05/19 07:45:37;;;;;;;4.10;2.60;;;15.50;99.90;;;;;;5074291;28;20116;-50
2023/05/19 07:48:03;;;;;;;6.90;3.53;;;15.40;99.90;;;;;;5074129;28;20032;-47
2023/05/19 07:50:29;;;;;;;6.53;3.55;;;15.70;99.90;;;;;;5089130;28;20056;-48
2023/05/19 07:52:55;;;;;;;5.05;3.10;;;15.70;99.90;;;;;;5073731;28;20032;-47
2023/05/19 07:55:22;;;;;;;6.50;3.13;;;15.80;99.90;;;;;;5073737;28;20068;-48
2023/05/19 07:57:49;;;;;;;6.50;3.22;;;15.90;99.90;;;;;;5074757;28;20033;-46
2023/05/19 08:00:16;;;;;;;4.45;2.58;;;;;;;;;;5073710;28;20139;-49
2023/05/19 08:02:42;;;;;;;7.97;3.28;;;16.00;99.90;;;;;;5070998;28;20454;-48
2023/05/19 08:05:09;;;;;;;4.90;2.97;;;16.00;99.90;;;;;;5073436;28;20028;-47
2023/05/19 08:07:35;;;;;;;7.55;3.50;;;16.10;99.90;;;;;;5074485;28;20024;-47
2023/05/19 08:10:01;;;;;;;5.63;2.90;;;16.10;99.90;;;;;;5071311;28;20085;-49
2023/05/19 08:12:27;;;;;;;5.97;2.90;;;16.00;99.90;;;;;;5070999;28;20064;-48
2023/05/19 08:14:52;;;;;;;7.30;3.67;;;16.10;99.90;;;;;;5071540;28;20447;-48
2023/05/19 08:17:18;;;;;;;6.72;3.45;;;16.10;99.90;;;;;;5074507;28;20024;-46
2023/05/19 08:19:44;;;;;;;5.68;3.42;;;16.10;99.90;;;;;;5073671;28;20108;-47
2023/05/19 08:22:09;;;;;;;6.15;3.10;;;16.10;99.90;;;;;;5073004;28;20035;-45
2023/05/19 08:24:35;;;;;;;5.70;2.88;;;16.10;99.90;;;;;;5068327;28;20183;-47
2023/05/19 08:27:03;;;;;;;5.45;3.25;;;;;;;;;;5072039;28;20460;-50
2023/05/19 08:29:29;;;;;;;5.78;2.83;;;16.00;99.90;;;;;;5064687;28;20037;-41
2023/05/19 08:31:55;;;;;;;6.85;3.50;;;16.10;99.90;;;;;;5073581;28;20039;-47
2023/05/19 08:34:21;;;;;;;4.35;2.80;;;;;;;;;;5072456;28;20048;-46
2023/05/19 08:36:47;;;;;;;6.13;3.17;;;;;;;;;;5090956;28;20033;-50
2023/05/19 08:39:15;;;;;;;6.85;3.53;;;;;;;;;;5073249;28;20046;-47
2023/05/19 08:41:40;;;;;;;6.07;3.72;;;16.50;99.90;;;;;;5073076;28;20041;-45
2023/05/19 08:44:06;;;;;;;5.32;3.35;;;;;;;;;;5068792;28;20513;-46
2023/05/19 08:46:32;;;;;;;5.75;3.35;;;16.70;99.90;;;;;;5071173;28;20028;-49
2023/05/19 08:49:03;;;;;;;9.30;5.95;;;16.80;99.90;;;;;;5072666;28;20031;-45
2023/05/19 08:51:34;;;;;;;6.97;3.85;;;16.70;99.90;;;;;;5067704;28;20067;-49
2023/05/19 08:54:11;;;;;;;7.75;4.10;;;16.80;99.90;;;;;;5071631;28;20040;-49
2023/05/19 08:56:37;;;;;;;7.35;3.30;;;16.90;99.90;;;;;;5062157;28;20036;-48
2023/05/19 08:59:04;;;;;;;7.63;3.88;;;;;;;;;;5070637;28;20106;-47
2023/05/19 09:01:30;;;;;;;7.03;4.18;;;17.10;99.90;;;;;;5064440;28;20021;-49
2023/05/19 09:03:57;;;;;;;6.60;4.03;;;17.10;99.90;;;;;;5068789;28;20520;-48
2023/05/19 09:06:23;;;;;;;8.68;4.20;;;17.10;99.90;;;;;;5086125;28;20452;-46
2023/05/19 09:08:49;;;;;;;6.93;3.33;;;17.20;99.90;;;;;;5070904;28;20021;-48
2023/05/19 09:11:15;;;;;;;5.50;3.42;;;17.20;99.90;;;;;;5073394;28;20040;-47
2023/05/19 09:13:41;;;;;;;6.38;3.67;;;17.10;99.90;;;;;;5066435;28;20151;-47
2023/05/19 09:16:07;;;;;;;7.55;4.18;;;17.00;99.90;;;;;;5087287;28;20033;-47
2023/05/19 09:18:33;;;;;;;7.47;4.13;;;17.20;99.90;;;;;;5069268;28;20048;-47
2023/05/19 09:21:02;;;;;;;5.90;3.90;;;17.40;99.90;;;;;;5071431;28;20040;-47
2023/05/19 09:23:30;;;;;;;6.55;3.63;;;17.40;99.90;;;;;;5033458;28;20113;-46
2023/05/19 09:25:56;;;;;;;7.60;4.70;;;17.40;99.90;;;;;;5067372;28;20405;-50
2023/05/19 09:28:28;;;;;;;5.65;3.63;;;17.30;99.90;;;;;;5055984;28;20032;-47
2023/05/19 09:31:00;;;;;;;10.30;4.85;;;17.50;99.90;;;;;;5068343;28;20040;-47
2023/05/19 09:33:26;;;;;;;7.05;3.95;;;17.50;99.90;;;;;;5065654;28;20037;-47
2023/05/19 09:35:56;;;;;;;9.10;3.53;;;17.90;99.90;;;;;;5053637;28;20119;-47
2023/05/19 09:38:24;;;;;;;7.03;4.20;;;18.10;99.90;;;;;;5068685;28;20035;-48
2023/05/19 09:40:51;;;;;;;7.25;3.65;;;;;;;;;;5068073;28;20032;-48
2023/05/19 09:43:17;;;;;;;7.78;4.57;;;;;;;;;;5065719;28;20150;-48
2023/05/19 09:45:43;;;;;;;8.65;3.67;;;18.50;99.90;;;;;;5069698;28;20040;-48
2023/05/19 09:48:09;;;;;;;7.10;3.95;;;18.80;99.90;;;;;;5002876;28;20033;-48
2023/05/19 09:50:36;;;;;;;8.82;4.55;;;;;;;;;;5062938;28;20086;-47
2023/05/19 09:53:03;;;;;;;7.72;4.50;;;;;;;;;;5061564;28;20114;-48
2023/05/19 09:55:29;;;;;;;7.43;4.75;;;19.30;99.90;;;;;;5070126;28;20127;-47
2023/05/19 09:57:55;;;;;;;6.60;3.90;;;;;;;;;;5035600;28;20119;-48
2023/05/19 10:00:22;;;;;;;5.57;3.90;;;;;;;;;;5071334;28;20052;-48
2023/05/19 10:02:49;;;;;;;6.70;3.88;;;;;;;;;;5072756;28;20024;-48
2023/05/19 10:05:19;;;;;;;7.65;4.38;;;;;;;;;;5070474;28;20029;-47
2023/05/19 10:07:53;;;;;;;7.43;4.45;;;20.10;99.90;;;;;;5071760;28;20428;-47
2023/05/19 10:10:20;;;;;;;6.85;4.22;;;;;;;;;;5071722;28;20121;-48
2023/05/19 10:12:47;;;;;;;7.18;3.88;;;19.80;99.90;;;;;;5068427;28;20013;-48
2023/05/19 10:15:17;;;;;;;6.07;4.00;;;19.90;99.90;;;;;;5084472;28;20531;-47
2023/05/19 10:17:44;;;;;;;7.00;4.22;;;;;;;;;;5070343;28;20037;-48
2023/05/19 10:20:14;;;;;;;4.75;3.35;;;;;;;;;;5071432;28;20027;-48
2023/05/19 10:22:41;;;;;;;5.32;3.05;;;;;;;;;;5070402;28;20037;-47
2023/05/19 10:25:07;;;;;;;7.63;4.20;;;;;;;;;;5071549;28;20503;-48
2023/05/19 10:27:41;;;;;;;6.38;3.80;;;21.70;99.90;;;;;;5071945;28;20064;-48
2023/05/19 10:30:12;;;;;;;5.63;3.80;;;21.50;99.90;;;;;;5070396;28;20028;-48
2023/05/19 10:32:41;;;;;;;5.90;3.83;;;21.40;99.90;;;;;;5072348;28;20025;-48
2023/05/19 10:35:07;;;;;;;5.82;3.85;;;;;;;;;;5071697;28;20020;-47
2023/05/19 10:37:33;;;;;;;7.40;4.55;;;;;;;;;;5087167;28;20098;-47
2023/05/19 10:40:00;;;;;;;6.40;3.83;;;;;;;;;;5071491;28;20365;-47
2023/05/19 10:42:47;;;;;;;7.50;3.90;;;21.60;99.90;;;;;;5070198;28;20119;-47
2023/05/19 10:45:18;;;;;;;5.65;3.63;;;21.40;99.90;;;;;;5068545;28;20036;-47
2023/05/19 10:47:44;;;;;;;5.85;3.78;;;21.80;99.90;;;;;;5069330;28;20534;-47
2023/05/19 10:50:10;;;;;;;5.05;3.40;;;22.00;99.90;;;;;;5071174;28;20028;-47
2023/05/19 10:52:37;;;;;;;7.18;3.95;;;22.10;99.90;;;;;;5071773;28;20476;-48
2023/05/19 10:55:05;;;;;;;6.95;3.88;;;;;;;;;;5070949;28;20032;-47
2023/05/19 10:57:32;;;;;;;6.28;3.85;;;22.60;99.90;;;;;;5071167;28;20039;-48
2023/05/19 10:59:59;;;;;;;4.13;2.95;;;;;;;;;;5066818;28;20110;-47
2023/05/19 11:02:38;;;;;;;4.72;3.25;;;;;;;;;;5071793;28;20028;-47
2023/05/19 11:05:08;;;;;;;4.63;3.00;;;;;;;;;;5071328;28;20456;-47
2023/05/19 11:07:34;;;;;;;5.38;3.30;;;;;;;;;;5071284;28;20387;-47
2023/05/19 11:10:04;;;;;;;4.15;3.08;;;;;;;;;;5072420;28;20025;-47
2023/05/19 11:12:39;;;;;;;5.43;3.38;;;;;;;;;;5090001;28;20040;-48
2023/05/19 11:15:06;;;;;;;5.03;3.58;;;;;;;;;;5071670;28;20388;-47
2023/05/19 11:17:34;;;;;;;7.05;4.28;;;23.70;99.90;;;;;;5071903;28;20079;-47
2023/05/19 11:20:00;;;;;;;6.53;3.65;;;;;;;;;;5074717;28;20060;-47
2023/05/19 11:22:26;;;;;;;5.00;3.40;;;24.00;99.90;;;;;;5074656;28;20032;-47
2023/05/19 11:24:56;;;;;;;4.70;3.20;;;23.60;99.90;;;;;;5074532;28;20047;-47
2023/05/19 11:27:31;;;;;;;5.05;2.92;;;23.40;99.90;;;;;;5072684;28;20032;-47
2023/05/19 11:30:10;;;;;;;6.22;3.85;;;23.40;99.90;;;;;;5073286;28;20035;-47
2023/05/19 11:32:40;;;;;;;6.43;3.40;;;23.70;99.90;;;;;;5073470;28;20047;-47
2023/05/19 11:35:09;;;;;;;7.13;3.78;;;23.80;99.90;;;;;;5072486;28;20028;-47
2023/05/19 11:37:36;;;;;;;6.45;3.53;;;;;;;;;;5075125;28;20033;-47
2023/05/19 11:40:08;;;;;;;7.20;3.53;;;24.10;99.90;;;;;;5074214;28;20017;-48
2023/05/19 11:42:34;;;;;;;7.63;3.85;;;;;;;;;;5074633;28;20456;-47
2023/05/19 11:45:00;;;;;;;4.90;3.55;;;24.30;99.90;;;;;;5074888;28;20062;-47
2023/05/19 11:47:26;;;;;;;5.50;3.83;;;24.10;99.90;;;;;;5061361;28;20044;-47
2023/05/19 11:49:55;;;;;;;6.10;3.38;;;23.70;99.90;;;;;;5053816;28;20086;-47
2023/05/19 11:52:26;;;;;;;6.72;3.80;;;23.40;99.90;;;;;;5068579;28;20044;-48
2023/05/19 11:54:52;;;;;;;5.78;3.53;;;23.60;99.90;;;;;;5065148;28;20025;-47
2023/05/19 11:57:18;;;;;;;7.80;4.43;;;23.20;99.90;;;;;;5070378;28;20033;-47
2023/05/19 11:59:48;;;;;;;4.93;3.28;;;23.70;99.90;;;;;;5067343;28;20106;-47
2023/05/19 12:02:18;;;;;;;6.53;3.85;;;23.60;99.90;;;;;;5073428;28;20035;-47
2023/05/19 12:04:45;;;;;;;5.32;3.70;;;24.10;99.90;;;;;;5070281;28;20039;-47
2023/05/19 12:07:12;;;;;;;6.35;3.50;;;24.60;99.90;;;;;;5038109;28;20040;-47
2023/05/19 12:09:39;;;;;;;8.20;4.55;;;;;;;;;;5064515;28;20097;-47
2023/05/19 12:12:05;;;;;;;7.22;3.67;;;;;;;;;;5066061;28;20040;-49
2023/05/19 12:14:31;;;;;;;6.00;4.00;;;;;;;;;;5034367;28;20054;-48
2023/05/19 12:16:58;;;;;;;5.95;4.07;;;;;;;;;;5065510;28;20032;-48
2023/05/19 12:19:24;;;;;;;5.63;3.78;;;;;;;;;;5070978;28;20438;-46
2023/05/19 12:21:51;;;;;;;8.50;3.78;;;23.10;99.90;;;;;;5070817;28;20020;-47
2023/05/19 12:24:18;;;;;;;5.45;3.65;;;;;;;;;;5068301;28;20037;-46
2023/05/19 12:26:44;;;;;;;5.25;3.58;;;24.90;99.90;;;;;;5035377;28;20071;-48
2023/05/19 12:29:12;;;;;;;6.60;3.60;;;;;;;;;;5069770;28;20142;-48
2023/05/19 12:31:38;;;;;;;6.65;3.83;;;24.10;99.90;;;;;;5068278;28;20059;-48
2023/05/19 12:34:04;;;;;;;7.47;4.47;;;24.10;99.90;;;;;;5068605;28;20523;-47
2023/05/19 12:36:31;;;;;;;6.28;3.40;;;24.80;99.90;;;;;;5073340;28;20036;-46
2023/05/19 12:38:57;;;;;;;6.15;3.88;;;24.80;99.90;;;;;;5065396;28;20431;-49
2023/05/19 12:41:28;;;;;;;7.00;4.15;;;23.90;99.90;;;;;;5073119;28;20036;-48
2023/05/19 12:43:54;;;;;;;6.00;4.40;;;23.80;99.90;;;;;;5072930;28;20077;-46
2023/05/19 12:46:21;;;;;;;5.63;4.07;;;24.40;99.90;;;;;;5071195;28;20033;-47
2023/05/19 12:48:47;;;;;;;6.15;3.90;;;;;;;;;;5073116;28;20033;-47
2023/05/19 12:51:17;;;;;;;6.35;4.65;;;;;;;;;;5065634;28;20039;-48
2023/05/19 12:53:43;;;;;;;6.68;4.97;;;25.30;99.90;;;;;;5072534;28;20040;-47
2023/05/19 12:56:13;;;;;;;5.55;4.95;;;25.40;99.90;;;;;;5070009;28;20028;-46
2023/05/19 12:58:40;;;;;;;6.28;4.60;;;25.30;99.90;;;;;;5072400;28;20031;-46
2023/05/19 13:01:09;;;;;;;7.22;5.60;;;25.10;99.90;;;;;;5073174;28;20036;-47
2023/05/19 13:03:40;;;;;;;7.88;5.00;;;24.90;99.90;;;;;;5087865;28;20041;-48
2023/05/19 13:06:06;;;;;;;7.75;5.43;;;25.20;99.90;;;;;;5072398;28;20107;-46
2023/05/19 13:08:32;;;;;;;5.57;3.92;;;25.50;99.90;;;;;;5070115;28;20152;-46
2023/05/19 13:10:58;;;;;;;6.15;4.18;;;25.60;99.90;;;;;;5072222;28;20476;-47
2023/05/19 13:13:24;;;;;;;5.53;4.22;;;25.10;99.90;;;;;;5072146;28;20029;-48
2023/05/19 13:15:50;;;;;;;5.53;3.85;;;;;;;;;;5037154;28;20036;-47
2023/05/19 13:18:16;;;;;;;6.53;4.43;;;24.00;99.90;;;;;;5072662;28;20028;-48